createdAt,value
2022-12-27T00:01:21.208Z,14.23
2022-12-27T00:03:48.466Z,14.65
2022-12-27T00:06:21.596Z,14.10
2022-12-27T00:08:48.937Z,14.25
2022-12-27T00:11:19.303Z,14.40
2022-12-27T00:13:46.912Z,13.73
2022-12-27T00:16:17.090Z,13.35
2022-12-27T00:18:44.605Z,14.38
2022-12-27T00:21:13.757Z,13.45
2022-12-27T00:23:44.669Z,14.02
2022-12-27T00:26:16.480Z,14.32
2022-12-27T00:28:43.743Z,15.20
2022-12-27T00:31:11.911Z,13.95
2022-12-27T00:33:40.496Z,13.20
2022-12-27T00:36:11.181Z,15.38
2022-12-27T00:38:38.329Z,14.00
2022-12-27T00:41:05.970Z,14.68
2022-12-27T00:43:33.185Z,14.95
2022-12-27T00:46:00.925Z,14.85
2022-12-27T00:48:28.086Z,13.40
2022-12-27T00:51:00.396Z,14.52
2022-12-27T00:53:28.973Z,13.40
2022-12-27T00:55:56.346Z,14.02
2022-12-27T00:58:24.229Z,13.00
2022-12-27T01:00:52.185Z,13.90
2022-12-27T01:03:20.249Z,12.75
2022-12-27T01:05:47.718Z,12.85
2022-12-27T01:08:14.610Z,12.57
2022-12-27T01:10:41.886Z,13.88
2022-12-27T01:13:08.926Z,12.25
2022-12-27T01:15:36.198Z,12.35
2022-12-27T01:18:03.334Z,12.65
2022-12-27T01:20:30.609Z,12.75
2022-12-27T01:22:57.782Z,11.98
2022-12-27T01:25:25.094Z,11.90
2022-12-27T01:27:52.292Z,11.77
2022-12-27T01:30:19.562Z,11.38
2022-12-27T01:32:46.484Z,11.73
2022-12-27T01:35:13.811Z,10.68
2022-12-27T01:37:41.237Z,10.85
2022-12-27T01:40:09.451Z,11.52
2022-12-27T01:42:55.704Z,10.65
2022-12-27T01:45:28.433Z,9.75
2022-12-27T01:48:06.892Z,10.73
2022-12-27T01:50:45.203Z,10.55
2022-12-27T01:53:27.196Z,10.13
2022-12-27T01:56:28.386Z,9.80
2022-12-27T01:59:02.732Z,9.57
2022-12-27T02:01:40.311Z,9.35
2022-12-27T02:04:10.429Z,9.75
2022-12-27T02:06:39.578Z,10.27
2022-12-27T02:09:21.886Z,9.38
2022-12-27T02:11:53.807Z,10.20
2022-12-27T02:14:32.856Z,9.63
2022-12-27T02:17:25.413Z,9.70
2022-12-27T02:20:06.509Z,9.35
2022-12-27T02:23:21.891Z,9.80
2022-12-27T02:26:12.544Z,9.10
2022-12-27T02:28:58.063Z,10.23
2022-12-27T02:32:04.279Z,8.60
2022-12-27T02:34:51.855Z,9.00
2022-12-27T02:37:20.789Z,9.30
2022-12-27T02:39:49.994Z,9.27
2022-12-27T02:42:38.420Z,8.70
2022-12-27T02:45:44.449Z,9.77
2022-12-27T02:48:33.918Z,9.15
2022-12-27T02:51:57.636Z,9.25
2022-12-27T02:54:36.570Z,8.75
2022-12-27T02:57:19.253Z,9.57
2022-12-27T03:00:21.569Z,8.93
2022-12-27T03:03:10.222Z,9.00
2022-12-27T03:05:37.230Z,9.68
2022-12-27T03:08:17.281Z,9.57
2022-12-27T03:11:09.662Z,10.18
2022-12-27T03:14:34.747Z,10.30
2022-12-27T03:17:13.767Z,10.02
2022-12-27T03:20:08.854Z,10.50
2022-12-27T03:22:55.704Z,11.00
2022-12-27T03:25:31.069Z,9.88
2022-12-27T03:28:27.901Z,11.13
2022-12-27T03:31:24.835Z,6.18
2022-12-27T03:34:04.648Z,6.00
2022-12-27T03:36:52.887Z,4.05
2022-12-27T03:39:30.857Z,3.90
2022-12-27T03:42:24.268Z,3.35
2022-12-27T03:44:51.913Z,2.67
2022-12-27T03:47:34.810Z,2.15
2022-12-27T03:50:25.684Z,1.25
2022-12-27T03:55:29.978Z,1.17
2022-12-27T03:58:00.717Z,1.25
2022-12-27T04:00:28.117Z,1.20
2022-12-27T04:02:55.900Z,1.10
2022-12-27T04:05:23.498Z,1.05
2022-12-27T04:08:09.370Z,1.58
2022-12-27T04:10:54.915Z,1.33
2022-12-27T04:13:40.685Z,1.02
2022-12-27T04:16:26.538Z,1.05
2022-12-27T04:19:12.524Z,1.50
2022-12-27T04:21:58.137Z,1.20
2022-12-27T04:24:43.989Z,1.20
2022-12-27T04:27:29.677Z,1.20
2022-12-27T04:30:15.809Z,1.33
2022-12-27T04:33:01.144Z,1.75
2022-12-27T04:35:28.816Z,1.75
2022-12-27T04:37:55.720Z,1.85
2022-12-27T04:40:41.492Z,1.20
2022-12-27T04:43:27.776Z,1.30
2022-12-27T04:46:14.404Z,1.30
2022-12-27T04:48:59.933Z,1.60
2022-12-27T04:51:46.657Z,1.67
2022-12-27T04:54:36.814Z,1.20
2022-12-27T04:57:04.542Z,1.52
2022-12-27T04:59:49.972Z,1.33
2022-12-27T05:02:19.423Z,1.60
2022-12-27T05:04:48.740Z,2.85
2022-12-27T05:07:34.490Z,1.40
2022-12-27T05:10:22.818Z,1.30
2022-12-27T05:13:08.919Z,1.30
2022-12-27T05:15:35.882Z,2.05
2022-12-27T05:18:03.230Z,1.15
2022-12-27T05:20:30.456Z,1.40
2022-12-27T05:23:16.373Z,1.60
2022-12-27T05:25:45.207Z,1.80
2022-12-27T05:28:13.586Z,1.55
2022-12-27T05:30:42.424Z,1.30
2022-12-27T05:33:09.923Z,1.73
2022-12-27T05:35:37.590Z,2.00
2022-12-27T05:38:05.874Z,1.67
2022-12-27T05:40:33.212Z,1.63
2022-12-27T05:43:03.752Z,1.65
2022-12-27T05:45:30.952Z,2.47
2022-12-27T05:47:59.521Z,1.88
2022-12-27T05:50:27.286Z,1.70
2022-12-27T05:53:07.821Z,2.00
2022-12-27T05:55:34.744Z,2.67
2022-12-27T05:58:02.012Z,1.83
2022-12-27T06:00:29.171Z,1.60
2022-12-27T06:02:56.498Z,2.30
2022-12-27T06:05:23.717Z,3.05
2022-12-27T06:07:51.186Z,2.47
2022-12-27T06:10:18.053Z,2.40
2022-12-27T06:12:45.597Z,2.13
2022-12-27T06:15:12.616Z,2.35
2022-12-27T06:17:39.874Z,2.05
2022-12-27T06:20:07.253Z,2.70
2022-12-27T06:22:34.432Z,1.85
2022-12-27T06:25:01.696Z,2.40
2022-12-27T06:27:29.079Z,2.85
2022-12-27T06:29:56.006Z,2.45
2022-12-27T06:32:23.283Z,2.05
2022-12-27T06:34:50.185Z,2.70
2022-12-27T06:37:18.412Z,2.80
2022-12-27T06:39:45.796Z,2.20
2022-12-27T06:42:13.143Z,2.00
2022-12-27T06:44:40.150Z,2.33
2022-12-27T06:47:07.360Z,2.45
2022-12-27T06:49:34.327Z,2.20
2022-12-27T06:52:01.630Z,2.60
2022-12-27T06:54:29.751Z,2.80
2022-12-27T06:56:57.077Z,3.50
2022-12-27T06:59:24.501Z,2.72
2022-12-27T07:01:51.911Z,2.63
2022-12-27T07:04:19.220Z,2.30
2022-12-27T07:06:46.406Z,2.13
2022-12-27T07:09:13.564Z,2.92
2022-12-27T07:11:40.917Z,2.38
2022-12-27T07:14:09.881Z,2.15
2022-12-27T07:16:37.713Z,2.38
2022-12-27T07:19:04.696Z,2.53
2022-12-27T07:21:32.130Z,2.63
2022-12-27T07:23:59.075Z,2.10
2022-12-27T07:26:30.123Z,3.20
2022-12-27T07:29:00.263Z,1.67
2022-12-27T07:31:30.475Z,2.45
2022-12-27T07:33:58.747Z,3.38
2022-12-27T07:36:29.932Z,2.63
2022-12-27T07:38:56.886Z,3.03
2022-12-27T07:41:25.533Z,3.85
2022-12-27T07:43:53.443Z,3.08
2022-12-27T07:46:23.119Z,2.58
2022-12-27T07:48:53.009Z,2.80
2022-12-27T07:51:20.480Z,4.18
2022-12-27T07:53:51.427Z,2.83
2022-12-27T07:56:26.190Z,3.35
2022-12-27T07:58:56.077Z,4.55
2022-12-27T08:01:25.373Z,2.55
2022-12-27T08:03:52.427Z,1.65
2022-12-27T08:06:25.086Z,4.10
2022-12-27T08:08:54.215Z,3.10
2022-12-27T08:11:21.870Z,2.95
2022-12-27T08:13:48.868Z,3.08
2022-12-27T08:16:19.711Z,3.35
2022-12-27T08:18:47.081Z,3.13
2022-12-27T08:21:16.754Z,3.42
2022-12-27T08:23:43.743Z,3.08
2022-12-27T08:26:11.416Z,3.50
2022-12-27T08:28:38.666Z,3.42
2022-12-27T08:31:08.500Z,3.33
2022-12-27T08:33:37.009Z,2.97
2022-12-27T08:36:52.959Z,3.47
2022-12-27T08:38:56.158Z,3.63
2022-12-27T08:41:24.367Z,2.85
2022-12-27T08:43:51.542Z,3.00
2022-12-27T08:46:21.709Z,3.72
2022-12-27T08:48:49.582Z,3.17
2022-12-27T08:51:28.356Z,3.17
2022-12-27T08:56:25.888Z,3.05
2022-12-27T08:58:52.970Z,2.95
2022-12-27T09:01:20.482Z,3.17
2022-12-27T09:03:47.476Z,3.53
2022-12-27T09:06:21.156Z,2.90
2022-12-27T09:08:50.401Z,2.63
2022-12-27T09:11:21.987Z,3.25
2022-12-27T09:13:49.592Z,3.58
2022-12-27T09:16:27.647Z,3.88
2022-12-27T09:18:57.112Z,2.63
2022-12-27T09:21:26.694Z,2.92
2022-12-27T09:23:54.938Z,2.53
2022-12-27T09:26:24.628Z,3.78
2022-12-27T09:28:52.105Z,3.38
2022-12-27T09:31:21.615Z,2.80
2022-12-27T09:33:48.707Z,2.90
2022-12-27T09:36:18.628Z,2.67
2022-12-27T09:38:47.026Z,3.53
2022-12-27T09:44:46.981Z,3.60
2022-12-27T09:49:55.571Z,3.13
2022-12-27T09:52:29.413Z,3.47
2022-12-27T09:55:05.719Z,3.47
2022-12-27T09:57:37.301Z,3.85
2022-12-27T10:00:14.640Z,3.30
2022-12-27T10:02:44.516Z,3.30
2022-12-27T10:05:22.012Z,3.40
2022-12-27T10:08:18.408Z,3.70
2022-12-27T10:10:57.861Z,4.07
2022-12-27T10:13:41.420Z,3.92
2022-12-27T10:16:17.593Z,4.38
2022-12-27T10:18:52.725Z,4.30
2022-12-27T10:21:23.928Z,4.80
2022-12-27T10:26:42.135Z,4.40
2022-12-27T10:29:19.687Z,4.07
2022-12-27T10:31:46.995Z,3.95
2022-12-27T10:34:17.251Z,4.07
2022-12-27T10:37:02.790Z,5.28
2022-12-27T10:39:34.861Z,4.80
2022-12-27T10:42:24.019Z,5.65
2022-12-27T10:44:51.682Z,4.18
2022-12-27T10:47:19.105Z,4.90
2022-12-27T10:50:09.380Z,4.50
2022-12-27T10:52:36.516Z,4.18
2022-12-27T10:55:04.165Z,5.18
2022-12-27T10:57:36.172Z,5.15
2022-12-27T11:00:21.945Z,5.25
2022-12-27T11:02:57.346Z,3.83
2022-12-27T11:05:33.652Z,4.97
2022-12-27T11:08:14.006Z,3.90
2022-12-27T11:10:41.393Z,4.28
2022-12-27T11:13:18.796Z,3.55
2022-12-27T11:15:58.745Z,4.00
2022-12-27T11:18:26.625Z,4.20
2022-12-27T11:20:57.286Z,4.07
2022-12-27T11:23:29.838Z,3.97
2022-12-27T11:25:59.799Z,3.92
2022-12-27T11:28:42.356Z,4.20
2022-12-27T11:31:18.882Z,4.85
2022-12-27T11:33:59.827Z,4.22
2022-12-27T11:36:33.673Z,4.30
2022-12-27T11:39:01.220Z,3.92
2022-12-27T11:41:37.928Z,3.80
2022-12-27T11:44:27.059Z,3.40
2022-12-27T11:47:07.396Z,3.88
2022-12-27T11:49:37.797Z,4.03
2022-12-27T11:52:27.178Z,4.10
2022-12-27T11:55:13.403Z,3.80
2022-12-27T11:58:21.592Z,3.60
2022-12-27T12:01:29.922Z,3.72
2022-12-27T12:04:21.870Z,3.85
2022-12-27T12:07:16.887Z,4.13
2022-12-27T12:10:08.920Z,3.80
2022-12-27T12:12:52.542Z,3.45
2022-12-27T12:15:37.276Z,2.95
2022-12-27T12:18:26.106Z,3.40
2022-12-27T12:21:21.691Z,3.45
2022-12-27T12:24:17.569Z,3.20
2022-12-27T12:26:56.070Z,3.10
2022-12-27T12:29:41.951Z,3.63
2022-12-27T12:32:43.297Z,2.70
2022-12-27T12:35:46.162Z,3.50
2022-12-27T12:38:22.596Z,3.10
2022-12-27T12:40:52.638Z,3.55
2022-12-27T12:43:59.564Z,3.33
2022-12-27T12:46:32.460Z,3.42
2022-12-27T12:49:28.228Z,3.92
2022-12-27T12:52:20.091Z,3.60
2022-12-27T12:54:54.844Z,4.15
2022-12-27T12:57:40.601Z,4.05
2022-12-27T13:00:36.446Z,4.10
2022-12-27T13:03:27.963Z,4.22
2022-12-27T13:06:15.432Z,3.80
2022-12-27T13:08:56.699Z,3.90
2022-12-27T13:11:46.528Z,4.05
2022-12-27T13:14:31.937Z,3.97
2022-12-27T13:17:19.387Z,4.47
2022-12-27T13:19:59.001Z,4.30
2022-12-27T13:22:29.277Z,4.65
2022-12-27T13:25:05.278Z,4.68
2022-12-27T13:28:04.494Z,6.03
2022-12-27T13:30:42.800Z,4.30
2022-12-27T13:33:18.485Z,4.57
2022-12-27T13:36:12.787Z,4.50
2022-12-27T13:39:17.825Z,5.90
2022-12-27T13:42:15.300Z,5.00
2022-12-27T13:44:49.354Z,5.20
2022-12-27T13:47:29.118Z,5.53
2022-12-27T13:50:02.140Z,5.85
2022-12-27T13:52:44.381Z,6.32
2022-12-27T13:55:36.951Z,6.03
2022-12-27T13:58:34.539Z,5.32
2022-12-27T14:01:29.961Z,6.85
2022-12-27T14:04:22.838Z,6.43
2022-12-27T14:07:08.904Z,6.03
2022-12-27T14:09:45.237Z,5.80
2022-12-27T14:12:37.083Z,5.18
2022-12-27T14:15:06.984Z,6.50
2022-12-27T14:18:11.938Z,6.13
2022-12-27T14:20:52.885Z,5.68
2022-12-27T14:23:20.173Z,5.10
2022-12-27T14:26:11.935Z,6.22
2022-12-27T14:28:56.158Z,5.95
2022-12-27T14:32:04.509Z,6.60
2022-12-27T14:34:47.074Z,6.78
2022-12-27T14:37:47.940Z,6.90
2022-12-27T14:40:52.379Z,6.10
2022-12-27T14:43:41.353Z,6.97
2022-12-27T14:46:32.463Z,5.90
2022-12-27T14:49:17.768Z,7.10
2022-12-27T14:52:24.193Z,6.82
2022-12-27T14:55:12.624Z,6.68
2022-12-27T14:58:18.317Z,7.50
2022-12-27T15:01:12.351Z,8.32
2022-12-27T15:04:17.111Z,6.97
2022-12-27T15:07:18.678Z,6.20
2022-12-27T15:12:48.318Z,6.63
2022-12-27T15:15:26.251Z,6.78
2022-12-27T15:18:26.654Z,6.38
2022-12-27T15:21:07.678Z,6.45
2022-12-27T15:23:54.443Z,7.00
2022-12-27T15:26:45.820Z,6.38
2022-12-27T15:29:15.737Z,6.32
2022-12-27T15:31:46.027Z,6.07
2022-12-27T15:34:37.644Z,7.13
2022-12-27T15:37:05.372Z,7.03
2022-12-27T15:39:35.552Z,7.28
2022-12-27T15:42:36.566Z,6.95
2022-12-27T15:45:33.709Z,6.80
2022-12-27T15:48:37.814Z,5.95
2022-12-27T15:51:14.007Z,6.28
2022-12-27T15:54:02.499Z,5.57
2022-12-27T15:56:48.022Z,6.43
2022-12-27T15:59:51.438Z,5.65
2022-12-27T16:02:31.198Z,5.15
2022-12-27T16:05:02.578Z,6.28
2022-12-27T16:07:43.458Z,6.25
2022-12-27T16:10:38.286Z,6.13
2022-12-27T16:13:05.155Z,6.00
2022-12-27T16:15:35.173Z,7.68
2022-12-27T16:18:03.733Z,6.50
2022-12-27T16:20:32.581Z,6.18
2022-12-27T16:23:06.796Z,6.68
2022-12-27T16:25:37.334Z,6.30
2022-12-27T16:28:19.736Z,5.82
2022-12-27T16:30:55.105Z,5.93
2022-12-27T16:33:28.438Z,5.65
2022-12-27T16:36:16.551Z,6.53
2022-12-27T16:38:55.047Z,6.45
2022-12-27T16:41:44.273Z,6.25
2022-12-27T16:44:14.145Z,5.13
2022-12-27T16:47:10.635Z,6.57
2022-12-27T16:50:05.923Z,6.57
2022-12-27T16:52:43.330Z,6.38
2022-12-27T16:55:36.479Z,6.30
2022-12-27T16:58:18.788Z,6.32
2022-12-27T17:00:47.780Z,5.78
2022-12-27T17:03:21.009Z,6.05
2022-12-27T17:06:22.115Z,6.15
2022-12-27T17:08:37.655Z,5.30
2022-12-27T17:11:27.764Z,6.30
2022-12-27T17:14:28.047Z,5.55
2022-12-27T17:17:14.837Z,6.22
2022-12-27T17:19:57.296Z,5.90
2022-12-27T17:22:33.941Z,6.47
2022-12-27T17:25:02.759Z,6.93
2022-12-27T17:27:34.960Z,5.85
2022-12-27T17:30:13.775Z,6.60
2022-12-27T17:33:01.046Z,5.60
2022-12-27T17:35:49.527Z,5.68
2022-12-27T17:38:41.406Z,6.05
2022-12-27T17:41:47.198Z,5.53
2022-12-27T17:44:51.586Z,6.93
2022-12-27T17:47:47.352Z,5.43
2022-12-27T17:50:25.958Z,4.85
2022-12-27T17:53:30.649Z,5.93
2022-12-27T17:56:20.719Z,5.03
2022-12-27T17:58:48.244Z,4.88
2022-12-27T18:01:15.558Z,5.28
2022-12-27T18:03:47.326Z,6.43
2022-12-27T18:06:18.934Z,6.30
2022-12-27T18:08:49.553Z,5.28
2022-12-27T18:11:23.448Z,6.45
2022-12-27T18:13:56.721Z,5.68
2022-12-27T18:16:30.007Z,6.28
2022-12-27T18:18:59.991Z,6.07
2022-12-27T18:21:29.295Z,6.28
2022-12-27T18:23:57.394Z,5.57
2022-12-27T18:26:35.003Z,4.68
2022-12-27T18:29:02.365Z,6.55
2022-12-27T18:31:35.963Z,5.97
2022-12-27T18:34:03.752Z,6.13
2022-12-27T18:36:37.926Z,5.68
2022-12-27T18:39:17.438Z,5.97
2022-12-27T18:41:51.018Z,5.97
2022-12-27T18:44:27.110Z,5.57
2022-12-27T18:47:01.287Z,6.05
2022-12-27T18:49:34.846Z,5.82
2022-12-27T18:52:11.488Z,6.25
2022-12-27T18:54:39.316Z,5.70
2022-12-27T18:57:24.429Z,5.30
2022-12-27T19:00:02.559Z,5.32
2022-12-27T19:02:36.304Z,5.18
2022-12-27T19:05:19.099Z,4.95
2022-12-27T19:07:56.697Z,3.95
2022-12-27T19:10:27.201Z,5.10
2022-12-27T19:12:55.369Z,5.40
2022-12-27T19:15:28.381Z,4.97
2022-12-27T19:18:01.975Z,5.13
2022-12-27T19:20:35.962Z,4.57
2022-12-27T19:23:06.258Z,5.07
2022-12-27T19:25:35.714Z,5.47
2022-12-27T19:28:25.993Z,4.78
2022-12-27T19:31:18.441Z,4.55
2022-12-27T19:33:47.960Z,4.97
2022-12-27T19:36:15.440Z,5.18
2022-12-27T19:38:47.852Z,4.65
2022-12-27T19:41:15.516Z,5.60
2022-12-27T19:43:44.915Z,5.43
2022-12-27T19:46:13.792Z,5.45
2022-12-27T19:48:41.248Z,5.07
2022-12-27T19:51:16.076Z,5.40
2022-12-27T19:53:49.968Z,5.43
2022-12-27T19:56:20.149Z,5.22
2022-12-27T19:58:47.866Z,5.03
2022-12-27T20:01:15.234Z,6.15
2022-12-27T20:04:00.515Z,4.85
2022-12-27T20:06:28.629Z,5.95
2022-12-27T20:08:55.548Z,5.35
2022-12-27T20:11:23.221Z,5.47
2022-12-27T20:13:50.461Z,5.38
2022-12-27T20:16:19.254Z,6.00
2022-12-27T20:18:46.701Z,5.78
2022-12-27T20:21:16.459Z,5.32
2022-12-27T20:23:44.223Z,5.93
2022-12-27T20:26:15.729Z,5.47
2022-12-27T20:28:42.840Z,5.90
2022-12-27T20:31:13.281Z,5.75
2022-12-27T20:33:40.601Z,5.93
2022-12-27T20:36:09.107Z,6.15
2022-12-27T20:38:38.724Z,5.80
2022-12-27T20:41:11.286Z,5.18
2022-12-27T20:43:38.732Z,5.50
2022-12-27T20:46:08.779Z,5.80
2022-12-27T20:48:40.614Z,5.82
2022-12-27T20:51:09.953Z,5.93
2022-12-27T20:53:37.054Z,6.28
2022-12-27T20:56:05.724Z,5.40
2022-12-27T20:58:33.396Z,6.13
2022-12-27T21:01:13.692Z,5.53
2022-12-27T21:03:41.008Z,5.43
2022-12-27T21:06:13.442Z,6.30
2022-12-27T21:08:47.741Z,6.55
2022-12-27T21:11:22.904Z,6.55
2022-12-27T21:13:50.261Z,5.97
2022-12-27T21:16:23.072Z,5.43
2022-12-27T21:18:50.735Z,5.82
2022-12-27T21:21:21.752Z,4.95
2022-12-27T21:23:49.200Z,6.50
2022-12-27T21:26:22.447Z,6.05
2022-12-27T21:28:50.002Z,5.40
2022-12-27T21:31:18.286Z,5.75
2022-12-27T21:33:45.594Z,5.40
2022-12-27T21:36:16.778Z,4.70
2022-12-27T21:38:44.313Z,5.30
2022-12-27T21:41:14.495Z,5.38
2022-12-27T21:43:42.365Z,5.20
2022-12-27T21:46:14.953Z,5.72
2022-12-27T21:48:42.698Z,5.88
2022-12-27T21:51:13.523Z,6.32
2022-12-27T21:53:41.118Z,5.38
2022-12-27T21:56:10.288Z,5.28
2022-12-27T21:58:38.604Z,4.97
2022-12-27T22:01:14.544Z,5.63
2022-12-27T22:03:44.903Z,6.63
2022-12-27T22:06:15.220Z,5.47
2022-12-27T22:08:43.943Z,4.35
2022-12-27T22:11:12.087Z,5.78
2022-12-27T22:13:39.339Z,5.20
2022-12-27T22:16:10.926Z,5.57
2022-12-27T22:18:41.512Z,6.25
2022-12-27T22:21:10.980Z,5.47
2022-12-27T22:23:40.404Z,5.45
2022-12-27T22:26:15.445Z,5.90
2022-12-27T22:28:42.471Z,5.82
2022-12-27T22:31:15.220Z,5.38
2022-12-27T22:33:42.474Z,5.63
2022-12-27T22:36:18.265Z,5.22
2022-12-27T22:38:49.479Z,5.65
2022-12-27T22:41:36.918Z,5.40
2022-12-27T22:44:22.289Z,5.25
2022-12-27T22:49:36.551Z,5.32
2022-12-27T22:52:03.851Z,5.78
2022-12-27T22:55:05.032Z,6.47
2022-12-27T22:57:18.192Z,5.90
2022-12-27T22:59:45.215Z,5.32
2022-12-27T23:02:12.879Z,5.57
2022-12-27T23:04:40.237Z,5.57
2022-12-27T23:07:07.663Z,6.13
2022-12-27T23:09:40.856Z,5.35
2022-12-27T23:12:10.543Z,5.35
2022-12-27T23:14:37.904Z,5.60
2022-12-27T23:17:05.556Z,6.03
2022-12-27T23:19:32.454Z,5.60
2022-12-27T23:21:59.703Z,6.00
2022-12-27T23:24:26.730Z,5.32
2022-12-27T23:26:53.949Z,7.22
2022-12-27T23:29:20.891Z,4.93
2022-12-27T23:31:55.251Z,5.68
2022-12-27T23:34:28.338Z,5.22
2022-12-27T23:37:01.076Z,5.00
2022-12-27T23:39:28.716Z,5.45
2022-12-27T23:41:56.515Z,5.35
2022-12-27T23:44:32.743Z,5.50
2022-12-27T23:47:00.831Z,5.07
2022-12-27T23:49:27.801Z,5.15
2022-12-27T23:51:55.101Z,5.43
2022-12-27T23:54:22.000Z,5.65
2022-12-27T23:56:49.488Z,4.97
2022-12-27T23:59:16.886Z,5.93
